sensor_id;sensor_type;location;lat;lon;timestamp;P1;durP1;ratioP1;P2;durP2;ratioP2
11951;SDS011;6036;41.840;23.486;2022-07-23T00:00:13;7.82;;;4.78;;
11951;SDS011;6036;41.840;23.486;2022-07-23T00:02:38;8.07;;;4.38;;
11951;SDS011;6036;41.840;23.486;2022-07-23T00:05:04;4.28;;;3.85;;
11951;SDS011;6036;41.840;23.486;2022-07-23T00:07:29;8.48;;;3.67;;
11951;SDS011;6036;41.840;23.486;2022-07-23T00:09:55;5.47;;;3.50;;
11951;SDS011;6036;41.840;23.486;2022-07-23T00:12:20;8.70;;;4.10;;
11951;SDS011;6036;41.840;23.486;2022-07-23T00:14:46;7.00;;;4.18;;
11951;SDS011;6036;41.840;23.486;2022-07-23T00:17:11;5.95;;;3.72;;
11951;SDS011;6036;41.840;23.486;2022-07-23T00:19:36;5.82;;;3.97;;
11951;SDS011;6036;41.840;23.486;2022-07-23T00:22:02;7.97;;;4.50;;
11951;SDS011;6036;41.840;23.486;2022-07-23T00:24:27;7.90;;;4.40;;
11951;SDS011;6036;41.840;23.486;2022-07-23T00:26:53;7.40;;;4.50;;
11951;SDS011;6036;41.840;23.486;2022-07-23T00:29:18;7.00;;;4.30;;
11951;SDS011;6036;41.840;23.486;2022-07-23T00:31:43;8.10;;;4.53;;
11951;SDS011;6036;41.840;23.486;2022-07-23T00:34:09;7.18;;;4.63;;
11951;SDS011;6036;41.840;23.486;2022-07-23T00:36:34;8.80;;;4.50;;
11951;SDS011;6036;41.840;23.486;2022-07-23T00:39:00;7.85;;;4.65;;
11951;SDS011;6036;41.840;23.486;2022-07-23T00:41:25;6.13;;;4.53;;
11951;SDS011;6036;41.840;23.486;2022-07-23T00:43:51;9.10;;;4.25;;
11951;SDS011;6036;41.840;23.486;2022-07-23T00:46:20;5.47;;;3.83;;
11951;SDS011;6036;41.840;23.486;2022-07-23T00:51:11;6.07;;;4.25;;
11951;SDS011;6036;41.840;23.486;2022-07-23T00:53:36;7.15;;;4.13;;
11951;SDS011;6036;41.840;23.486;2022-07-23T00:56:02;6.20;;;4.22;;
11951;SDS011;6036;41.840;23.486;2022-07-23T00:58:28;6.15;;;3.92;;
11951;SDS011;6036;41.840;23.486;2022-07-23T01:00:54;5.93;;;4.10;;
11951;SDS011;6036;41.840;23.486;2022-07-23T01:03:19;5.95;;;4.20;;
11951;SDS011;6036;41.840;23.486;2022-07-23T01:05:45;7.90;;;4.00;;
11951;SDS011;6036;41.840;23.486;2022-07-23T01:08:10;4.93;;;4.10;;
11951;SDS011;6036;41.840;23.486;2022-07-23T01:10:37;9.20;;;3.85;;
11951;SDS011;6036;41.840;23.486;2022-07-23T01:13:04;5.35;;;4.60;;
11951;SDS011;6036;41.840;23.486;2022-07-23T01:15:34;5.60;;;4.28;;
11951;SDS011;6036;41.840;23.486;2022-07-23T01:18:00;5.32;;;3.80;;
11951;SDS011;6036;41.840;23.486;2022-07-23T01:20:26;4.45;;;3.92;;
11951;SDS011;6036;41.840;23.486;2022-07-23T01:22:52;8.63;;;4.00;;
11951;SDS011;6036;41.840;23.486;2022-07-23T01:25:18;5.95;;;4.53;;
11951;SDS011;6036;41.840;23.486;2022-07-23T01:27:44;7.13;;;3.83;;
11951;SDS011;6036;41.840;23.486;2022-07-23T01:30:10;7.97;;;4.43;;
11951;SDS011;6036;41.840;23.486;2022-07-23T01:32:37;8.40;;;4.97;;
11951;SDS011;6036;41.840;23.486;2022-07-23T01:35:03;7.32;;;4.60;;
11951;SDS011;6036;41.840;23.486;2022-07-23T01:37:30;6.60;;;4.53;;
11951;SDS011;6036;41.840;23.486;2022-07-23T01:39:55;6.82;;;4.60;;
11951;SDS011;6036;41.840;23.486;2022-07-23T01:42:21;7.82;;;4.72;;
11951;SDS011;6036;41.840;23.486;2022-07-23T01:44:46;6.22;;;4.68;;
11951;SDS011;6036;41.840;23.486;2022-07-23T01:47:20;6.97;;;4.45;;
11951;SDS011;6036;41.840;23.486;2022-07-23T01:49:45;6.43;;;4.75;;
11951;SDS011;6036;41.840;23.486;2022-07-23T01:52:10;8.00;;;4.82;;
11951;SDS011;6036;41.840;23.486;2022-07-23T01:54:36;9.35;;;5.55;;
11951;SDS011;6036;41.840;23.486;2022-07-23T01:57:04;8.20;;;5.40;;
11951;SDS011;6036;41.840;23.486;2022-07-23T01:59:30;11.00;;;5.00;;
11951;SDS011;6036;41.840;23.486;2022-07-23T02:01:56;7.20;;;5.10;;
11951;SDS011;6036;41.840;23.486;2022-07-23T02:04:22;9.27;;;5.70;;
11951;SDS011;6036;41.840;23.486;2022-07-23T02:06:49;9.65;;;6.18;;
11951;SDS011;6036;41.840;23.486;2022-07-23T02:09:15;11.35;;;7.15;;
11951;SDS011;6036;41.840;23.486;2022-07-23T02:11:40;18.33;;;10.02;;
11951;SDS011;6036;41.840;23.486;2022-07-23T02:14:06;16.83;;;9.23;;
11951;SDS011;6036;41.840;23.486;2022-07-23T02:16:31;8.52;;;5.43;;
11951;SDS011;6036;41.840;23.486;2022-07-23T02:18:57;9.23;;;5.55;;
11951;SDS011;6036;41.840;23.486;2022-07-23T02:21:22;8.75;;;5.82;;
11951;SDS011;6036;41.840;23.486;2022-07-23T02:23:48;7.47;;;4.72;;
11951;SDS011;6036;41.840;23.486;2022-07-23T02:26:13;8.68;;;4.70;;
11951;SDS011;6036;41.840;23.486;2022-07-23T02:28:39;5.93;;;4.47;;
11951;SDS011;6036;41.840;23.486;2022-07-23T02:31:04;8.07;;;4.90;;
11951;SDS011;6036;41.840;23.486;2022-07-23T02:33:31;6.75;;;4.45;;
11951;SDS011;6036;41.840;23.486;2022-07-23T02:35:57;6.03;;;5.13;;
11951;SDS011;6036;41.840;23.486;2022-07-23T02:38:22;8.82;;;5.00;;
11951;SDS011;6036;41.840;23.486;2022-07-23T02:40:48;7.72;;;4.97;;
11951;SDS011;6036;41.840;23.486;2022-07-23T02:43:13;7.10;;;4.38;;
11951;SDS011;6036;41.840;23.486;2022-07-23T02:45:38;9.70;;;4.93;;
11951;SDS011;6036;41.840;23.486;2022-07-23T02:48:04;7.43;;;4.45;;
11951;SDS011;6036;41.840;23.486;2022-07-23T02:50:29;9.15;;;4.95;;
11951;SDS011;6036;41.840;23.486;2022-07-23T02:52:55;7.32;;;4.70;;
11951;SDS011;6036;41.840;23.486;2022-07-23T02:55:20;7.03;;;4.55;;
11951;SDS011;6036;41.840;23.486;2022-07-23T02:57:46;5.45;;;4.70;;
11951;SDS011;6036;41.840;23.486;2022-07-23T03:00:11;7.30;;;4.28;;
11951;SDS011;6036;41.840;23.486;2022-07-23T03:02:37;9.13;;;4.68;;
11951;SDS011;6036;41.840;23.486;2022-07-23T03:05:03;6.80;;;4.63;;
11951;SDS011;6036;41.840;23.486;2022-07-23T03:07:29;6.57;;;4.82;;
11951;SDS011;6036;41.840;23.486;2022-07-23T03:09:54;7.63;;;5.50;;
11951;SDS011;6036;41.840;23.486;2022-07-23T03:12:19;9.05;;;5.25;;
11951;SDS011;6036;41.840;23.486;2022-07-23T03:14:45;8.43;;;5.50;;
11951;SDS011;6036;41.840;23.486;2022-07-23T03:17:10;9.95;;;5.57;;
11951;SDS011;6036;41.840;23.486;2022-07-23T03:19:36;6.82;;;5.38;;
11951;SDS011;6036;41.840;23.486;2022-07-23T03:22:02;6.63;;;4.18;;
11951;SDS011;6036;41.840;23.486;2022-07-23T03:24:28;8.80;;;5.40;;
11951;SDS011;6036;41.840;23.486;2022-07-23T03:27:12;8.07;;;5.28;;
11951;SDS011;6036;41.840;23.486;2022-07-23T03:29:37;10.32;;;5.20;;
11951;SDS011;6036;41.840;23.486;2022-07-23T03:32:03;6.40;;;4.95;;
11951;SDS011;6036;41.840;23.486;2022-07-23T03:34:29;8.50;;;5.15;;
11951;SDS011;6036;41.840;23.486;2022-07-23T03:36:54;6.72;;;4.57;;
11951;SDS011;6036;41.840;23.486;2022-07-23T03:39:20;11.75;;;5.07;;
11951;SDS011;6036;41.840;23.486;2022-07-23T03:41:45;7.65;;;4.95;;
11951;SDS011;6036;41.840;23.486;2022-07-23T03:44:10;8.50;;;4.90;;
11951;SDS011;6036;41.840;23.486;2022-07-23T03:46:36;10.05;;;5.03;;
11951;SDS011;6036;41.840;23.486;2022-07-23T03:49:01;6.32;;;5.30;;
11951;SDS011;6036;41.840;23.486;2022-07-23T03:51:27;9.95;;;4.80;;
11951;SDS011;6036;41.840;23.486;2022-07-23T03:53:52;10.23;;;5.30;;
11951;SDS011;6036;41.840;23.486;2022-07-23T03:56:19;8.00;;;5.22;;
11951;SDS011;6036;41.840;23.486;2022-07-23T03:58:45;34.15;;;13.63;;
11951;SDS011;6036;41.840;23.486;2022-07-23T04:01:10;13.73;;;7.25;;
11951;SDS011;6036;41.840;23.486;2022-07-23T04:03:37;11.63;;;5.90;;
11951;SDS011;6036;41.840;23.486;2022-07-23T04:06:02;7.95;;;5.25;;
11951;SDS011;6036;41.840;23.486;2022-07-23T04:08:28;8.45;;;4.90;;
11951;SDS011;6036;41.840;23.486;2022-07-23T04:10:53;7.38;;;4.72;;
11951;SDS011;6036;41.840;23.486;2022-07-23T04:13:19;6.07;;;4.90;;
11951;SDS011;6036;41.840;23.486;2022-07-23T04:15:45;7.72;;;4.80;;
11951;SDS011;6036;41.840;23.486;2022-07-23T04:18:10;8.00;;;5.28;;
11951;SDS011;6036;41.840;23.486;2022-07-23T04:20:36;8.32;;;4.32;;
11951;SDS011;6036;41.840;23.486;2022-07-23T04:23:01;9.48;;;4.85;;
11951;SDS011;6036;41.840;23.486;2022-07-23T04:25:27;6.28;;;4.82;;
11951;SDS011;6036;41.840;23.486;2022-07-23T04:27:52;6.07;;;4.32;;
11951;SDS011;6036;41.840;23.486;2022-07-23T04:30:18;8.15;;;5.78;;
11951;SDS011;6036;41.840;23.486;2022-07-23T04:32:43;8.10;;;5.45;;
11951;SDS011;6036;41.840;23.486;2022-07-23T04:35:08;7.72;;;5.63;;
11951;SDS011;6036;41.840;23.486;2022-07-23T04:37:34;14.60;;;6.80;;
11951;SDS011;6036;41.840;23.486;2022-07-23T04:39:59;14.60;;;7.93;;
11951;SDS011;6036;41.840;23.486;2022-07-23T04:42:25;22.73;;;10.13;;
11951;SDS011;6036;41.840;23.486;2022-07-23T04:44:50;19.70;;;11.35;;
11951;SDS011;6036;41.840;23.486;2022-07-23T04:47:16;15.23;;;10.50;;
11951;SDS011;6036;41.840;23.486;2022-07-23T04:49:41;19.00;;;11.45;;
11951;SDS011;6036;41.840;23.486;2022-07-23T04:52:06;17.02;;;10.07;;
11951;SDS011;6036;41.840;23.486;2022-07-23T04:54:32;14.02;;;10.40;;
11951;SDS011;6036;41.840;23.486;2022-07-23T04:56:57;14.07;;;10.10;;
11951;SDS011;6036;41.840;23.486;2022-07-23T04:59:23;14.82;;;9.52;;
11951;SDS011;6036;41.840;23.486;2022-07-23T05:01:48;16.10;;;9.73;;
11951;SDS011;6036;41.840;23.486;2022-07-23T05:04:13;16.92;;;10.80;;
11951;SDS011;6036;41.840;23.486;2022-07-23T05:06:39;14.70;;;10.70;;
11951;SDS011;6036;41.840;23.486;2022-07-23T05:09:04;15.20;;;10.88;;
11951;SDS011;6036;41.840;23.486;2022-07-23T05:11:30;15.35;;;11.15;;
11951;SDS011;6036;41.840;23.486;2022-07-23T05:13:55;15.02;;;9.65;;
11951;SDS011;6036;41.840;23.486;2022-07-23T05:16:20;13.77;;;9.52;;
11951;SDS011;6036;41.840;23.486;2022-07-23T05:18:46;13.63;;;9.90;;
11951;SDS011;6036;41.840;23.486;2022-07-23T05:21:11;15.32;;;9.10;;
11951;SDS011;6036;41.840;23.486;2022-07-23T05:23:37;15.07;;;9.35;;
11951;SDS011;6036;41.840;23.486;2022-07-23T05:26:02;13.27;;;8.50;;
11951;SDS011;6036;41.840;23.486;2022-07-23T05:28:27;18.60;;;9.98;;
11951;SDS011;6036;41.840;23.486;2022-07-23T05:30:53;15.52;;;8.32;;
11951;SDS011;6036;41.840;23.486;2022-07-23T05:33:19;15.45;;;8.77;;
11951;SDS011;6036;41.840;23.486;2022-07-23T05:35:45;11.77;;;7.53;;
11951;SDS011;6036;41.840;23.486;2022-07-23T05:38:10;11.95;;;7.13;;
11951;SDS011;6036;41.840;23.486;2022-07-23T05:40:36;13.57;;;7.32;;
11951;SDS011;6036;41.840;23.486;2022-07-23T05:43:01;12.68;;;7.28;;
11951;SDS011;6036;41.840;23.486;2022-07-23T05:45:26;10.20;;;7.07;;
11951;SDS011;6036;41.840;23.486;2022-07-23T05:47:52;12.20;;;7.18;;
11951;SDS011;6036;41.840;23.486;2022-07-23T05:50:17;10.48;;;7.55;;
11951;SDS011;6036;41.840;23.486;2022-07-23T05:52:43;11.50;;;7.53;;
11951;SDS011;6036;41.840;23.486;2022-07-23T05:55:09;11.10;;;7.18;;
11951;SDS011;6036;41.840;23.486;2022-07-23T05:57:36;12.10;;;7.75;;
11951;SDS011;6036;41.840;23.486;2022-07-23T06:00:02;9.82;;;7.72;;
11951;SDS011;6036;41.840;23.486;2022-07-23T06:02:29;7.63;;;6.80;;
11951;SDS011;6036;41.840;23.486;2022-07-23T06:04:54;12.48;;;7.30;;
11951;SDS011;6036;41.840;23.486;2022-07-23T06:07:20;7.97;;;6.30;;
11951;SDS011;6036;41.840;23.486;2022-07-23T06:09:45;7.53;;;6.47;;
11951;SDS011;6036;41.840;23.486;2022-07-23T06:12:12;9.43;;;6.07;;
11951;SDS011;6036;41.840;23.486;2022-07-23T06:14:38;12.18;;;8.38;;
11951;SDS011;6036;41.840;23.486;2022-07-23T06:17:03;10.65;;;8.40;;
11951;SDS011;6036;41.840;23.486;2022-07-23T06:19:28;12.40;;;9.15;;
11951;SDS011;6036;41.840;23.486;2022-07-23T06:21:54;11.18;;;8.13;;
11951;SDS011;6036;41.840;23.486;2022-07-23T06:24:19;9.55;;;8.05;;
11951;SDS011;6036;41.840;23.486;2022-07-23T06:26:45;12.93;;;8.52;;
11951;SDS011;6036;41.840;23.486;2022-07-23T06:29:10;11.00;;;8.60;;
11951;SDS011;6036;41.840;23.486;2022-07-23T06:31:36;17.10;;;9.35;;
11951;SDS011;6036;41.840;23.486;2022-07-23T06:34:01;15.38;;;8.25;;
11951;SDS011;6036;41.840;23.486;2022-07-23T06:36:27;13.40;;;8.45;;
11951;SDS011;6036;41.840;23.486;2022-07-23T06:38:52;13.75;;;9.45;;
11951;SDS011;6036;41.840;23.486;2022-07-23T06:41:18;12.38;;;8.93;;
11951;SDS011;6036;41.840;23.486;2022-07-23T06:43:44;10.93;;;9.20;;
11951;SDS011;6036;41.840;23.486;2022-07-23T06:46:09;12.07;;;9.20;;
11951;SDS011;6036;41.840;23.486;2022-07-23T06:48:35;11.07;;;9.13;;
11951;SDS011;6036;41.840;23.486;2022-07-23T06:51:01;12.95;;;9.98;;
11951;SDS011;6036;41.840;23.486;2022-07-23T06:53:27;14.65;;;8.85;;
11951;SDS011;6036;41.840;23.486;2022-07-23T06:55:52;12.77;;;9.00;;
11951;SDS011;6036;41.840;23.486;2022-07-23T06:58:18;11.02;;;8.90;;
11951;SDS011;6036;41.840;23.486;2022-07-23T07:00:44;12.10;;;8.20;;
11951;SDS011;6036;41.840;23.486;2022-07-23T07:03:10;15.85;;;10.82;;
11951;SDS011;6036;41.840;23.486;2022-07-23T07:05:35;10.95;;;9.27;;
11951;SDS011;6036;41.840;23.486;2022-07-23T07:08:01;16.45;;;10.45;;
11951;SDS011;6036;41.840;23.486;2022-07-23T07:10:26;12.77;;;10.50;;
11951;SDS011;6036;41.840;23.486;2022-07-23T07:12:51;20.20;;;14.18;;
11951;SDS011;6036;41.840;23.486;2022-07-23T07:15:17;11.82;;;10.02;;
11951;SDS011;6036;41.840;23.486;2022-07-23T07:17:42;15.68;;;9.93;;
11951;SDS011;6036;41.840;23.486;2022-07-23T07:20:08;11.55;;;9.80;;
11951;SDS011;6036;41.840;23.486;2022-07-23T07:22:35;17.52;;;10.05;;
11951;SDS011;6036;41.840;23.486;2022-07-23T07:25:00;16.98;;;10.93;;
11951;SDS011;6036;41.840;23.486;2022-07-23T07:27:26;13.98;;;9.38;;
11951;SDS011;6036;41.840;23.486;2022-07-23T07:29:51;11.60;;;7.78;;
11951;SDS011;6036;41.840;23.486;2022-07-23T07:32:17;10.63;;;8.23;;
11951;SDS011;6036;41.840;23.486;2022-07-23T07:34:42;11.15;;;7.55;;
11951;SDS011;6036;41.840;23.486;2022-07-23T07:37:08;13.88;;;8.75;;
11951;SDS011;6036;41.840;23.486;2022-07-23T07:39:33;10.63;;;7.60;;
11951;SDS011;6036;41.840;23.486;2022-07-23T07:41:59;11.95;;;8.07;;
11951;SDS011;6036;41.840;23.486;2022-07-23T07:44:24;11.38;;;7.95;;
11951;SDS011;6036;41.840;23.486;2022-07-23T07:46:50;12.43;;;8.52;;
11951;SDS011;6036;41.840;23.486;2022-07-23T07:49:15;11.60;;;8.63;;
11951;SDS011;6036;41.840;23.486;2022-07-23T07:51:44;9.00;;;7.57;;
11951;SDS011;6036;41.840;23.486;2022-07-23T07:54:10;11.43;;;8.00;;
11951;SDS011;6036;41.840;23.486;2022-07-23T07:56:36;10.43;;;7.32;;
11951;SDS011;6036;41.840;23.486;2022-07-23T07:59:02;11.40;;;7.60;;
11951;SDS011;6036;41.840;23.486;2022-07-23T08:01:27;9.68;;;7.40;;
11951;SDS011;6036;41.840;23.486;2022-07-23T08:03:52;11.13;;;7.05;;
11951;SDS011;6036;41.840;23.486;2022-07-23T08:06:18;10.43;;;7.88;;
11951;SDS011;6036;41.840;23.486;2022-07-23T08:08:43;10.15;;;6.70;;
11951;SDS011;6036;41.840;23.486;2022-07-23T08:11:09;11.32;;;7.57;;
11951;SDS011;6036;41.840;23.486;2022-07-23T08:13:34;8.60;;;7.25;;
11951;SDS011;6036;41.840;23.486;2022-07-23T08:16:00;8.90;;;7.30;;
11951;SDS011;6036;41.840;23.486;2022-07-23T08:18:25;14.55;;;7.18;;
11951;SDS011;6036;41.840;23.486;2022-07-23T08:20:51;10.68;;;6.82;;
11951;SDS011;6036;41.840;23.486;2022-07-23T08:23:16;8.57;;;6.38;;
11951;SDS011;6036;41.840;23.486;2022-07-23T08:25:44;12.82;;;6.97;;
11951;SDS011;6036;41.840;23.486;2022-07-23T08:28:11;10.05;;;6.80;;
11951;SDS011;6036;41.840;23.486;2022-07-23T08:30:39;8.57;;;5.60;;
11951;SDS011;6036;41.840;23.486;2022-07-23T08:33:07;5.78;;;4.85;;
11951;SDS011;6036;41.840;23.486;2022-07-23T08:35:44;6.30;;;5.15;;
11951;SDS011;6036;41.840;23.486;2022-07-23T08:38:12;8.55;;;5.38;;
11951;SDS011;6036;41.840;23.486;2022-07-23T08:40:41;8.75;;;6.13;;
11951;SDS011;6036;41.840;23.486;2022-07-23T08:43:10;9.23;;;5.78;;
11951;SDS011;6036;41.840;23.486;2022-07-23T08:45:41;8.70;;;5.22;;
11951;SDS011;6036;41.840;23.486;2022-07-23T08:48:08;5.97;;;4.10;;
11951;SDS011;6036;41.840;23.486;2022-07-23T08:50:37;9.75;;;5.97;;
11951;SDS011;6036;41.840;23.486;2022-07-23T08:53:05;5.88;;;5.35;;
11951;SDS011;6036;41.840;23.486;2022-07-23T08:55:31;5.40;;;4.57;;
11951;SDS011;6036;41.840;23.486;2022-07-23T08:57:56;5.03;;;4.32;;
11951;SDS011;6036;41.840;23.486;2022-07-23T09:00:22;6.80;;;4.72;;
11951;SDS011;6036;41.840;23.486;2022-07-23T09:02:48;10.13;;;4.05;;
11951;SDS011;6036;41.840;23.486;2022-07-23T09:05:15;8.43;;;4.70;;
11951;SDS011;6036;41.840;23.486;2022-07-23T09:10:48;9.05;;;4.90;;
11951;SDS011;6036;41.840;23.486;2022-07-23T09:15:56;11.10;;;4.78;;
11951;SDS011;6036;41.840;23.486;2022-07-23T09:18:40;5.45;;;4.57;;
11951;SDS011;6036;41.840;23.486;2022-07-23T09:21:10;7.05;;;4.40;;
11951;SDS011;6036;41.840;23.486;2022-07-23T09:29:04;5.13;;;4.18;;
11951;SDS011;6036;41.840;23.486;2022-07-23T09:31:49;11.40;;;4.40;;
11951;SDS011;6036;41.840;23.486;2022-07-23T09:34:22;8.40;;;3.85;;
11951;SDS011;6036;41.840;23.486;2022-07-23T09:36:53;7.05;;;3.28;;
11951;SDS011;6036;41.840;23.486;2022-07-23T09:39:29;5.80;;;3.17;;
11951;SDS011;6036;41.840;23.486;2022-07-23T09:41:56;6.47;;;3.15;;
11951;SDS011;6036;41.840;23.486;2022-07-23T09:44:22;7.70;;;3.80;;
11951;SDS011;6036;41.840;23.486;2022-07-23T09:46:49;7.50;;;3.50;;
11951;SDS011;6036;41.840;23.486;2022-07-23T09:51:55;10.95;;;3.50;;
11951;SDS011;6036;41.840;23.486;2022-07-23T09:54:26;4.50;;;2.90;;
11951;SDS011;6036;41.840;23.486;2022-07-23T09:59:30;9.48;;;4.45;;
11951;SDS011;6036;41.840;23.486;2022-07-23T10:01:58;7.35;;;4.20;;
11951;SDS011;6036;41.840;23.486;2022-07-23T10:04:25;8.70;;;3.70;;
11951;SDS011;6036;41.840;23.486;2022-07-23T10:06:59;6.90;;;3.65;;
11951;SDS011;6036;41.840;23.486;2022-07-23T10:09:29;6.90;;;4.07;;
11951;SDS011;6036;41.840;23.486;2022-07-23T10:11:57;5.68;;;3.13;;
11951;SDS011;6036;41.840;23.486;2022-07-23T10:14:45;6.30;;;3.97;;
11951;SDS011;6036;41.840;23.486;2022-07-23T10:17:12;7.50;;;3.30;;
11951;SDS011;6036;41.840;23.486;2022-07-23T10:19:37;10.50;;;3.22;;
11951;SDS011;6036;41.840;23.486;2022-07-23T10:22:04;5.88;;;3.03;;
11951;SDS011;6036;41.840;23.486;2022-07-23T10:35:48;4.78;;;2.90;;
11951;SDS011;6036;41.840;23.486;2022-07-23T10:40:56;5.15;;;3.13;;
11951;SDS011;6036;41.840;23.486;2022-07-23T10:43:25;5.15;;;3.45;;
11951;SDS011;6036;41.840;23.486;2022-07-23T10:45:52;4.85;;;2.90;;
11951;SDS011;6036;41.840;23.486;2022-07-23T10:48:22;5.22;;;3.67;;
11951;SDS011;6036;41.840;23.486;2022-07-23T10:51:10;4.50;;;2.80;;
11951;SDS011;6036;41.840;23.486;2022-07-23T10:56:14;7.03;;;3.10;;
11951;SDS011;6036;41.840;23.486;2022-07-23T10:58:47;3.67;;;2.83;;
11951;SDS011;6036;41.840;23.486;2022-07-23T11:03:59;5.18;;;3.03;;
11951;SDS011;6036;41.840;23.486;2022-07-23T11:07:05;5.70;;;3.10;;
11951;SDS011;6036;41.840;23.486;2022-07-23T11:09:23;3.28;;;2.85;;
11951;SDS011;6036;41.840;23.486;2022-07-23T11:17:37;6.65;;;3.00;;
11951;SDS011;6036;41.840;23.486;2022-07-23T11:22:37;3.50;;;2.80;;
11951;SDS011;6036;41.840;23.486;2022-07-23T11:25:04;4.18;;;2.75;;
11951;SDS011;6036;41.840;23.486;2022-07-23T11:27:40;4.53;;;3.67;;
11951;SDS011;6036;41.840;23.486;2022-07-23T11:30:07;3.85;;;3.00;;
11951;SDS011;6036;41.840;23.486;2022-07-23T11:32:35;5.43;;;3.03;;
11951;SDS011;6036;41.840;23.486;2022-07-23T11:37:43;3.78;;;3.00;;
11951;SDS011;6036;41.840;23.486;2022-07-23T11:40:11;5.35;;;3.40;;
11951;SDS011;6036;41.840;23.486;2022-07-23T11:42:40;3.65;;;2.75;;
11951;SDS011;6036;41.840;23.486;2022-07-23T11:45:20;3.35;;;2.70;;
11951;SDS011;6036;41.840;23.486;2022-07-23T11:47:46;4.25;;;2.92;;
11951;SDS011;6036;41.840;23.486;2022-07-23T11:50:11;5.07;;;3.00;;
11951;SDS011;6036;41.840;23.486;2022-07-23T11:52:38;3.88;;;3.15;;
11951;SDS011;6036;41.840;23.486;2022-07-23T11:55:05;4.38;;;3.40;;
11951;SDS011;6036;41.840;23.486;2022-07-23T11:57:34;5.53;;;3.33;;
11951;SDS011;6036;41.840;23.486;2022-07-23T12:00:34;7.33;;;3.03;;
11951;SDS011;6036;41.840;23.486;2022-07-23T12:02:59;5.78;;;3.47;;
11951;SDS011;6036;41.840;23.486;2022-07-23T12:05:32;6.13;;;3.60;;
11951;SDS011;6036;41.840;23.486;2022-07-23T12:08:01;4.30;;;2.92;;
11951;SDS011;6036;41.840;23.486;2022-07-23T12:10:33;5.60;;;2.80;;
11951;SDS011;6036;41.840;23.486;2022-07-23T12:13:14;3.05;;;2.75;;
11951;SDS011;6036;41.840;23.486;2022-07-23T12:15:44;3.63;;;2.70;;
11951;SDS011;6036;41.840;23.486;2022-07-23T12:18:14;5.72;;;3.25;;
11951;SDS011;6036;41.840;23.486;2022-07-23T12:20:42;4.72;;;3.33;;
11951;SDS011;6036;41.840;23.486;2022-07-23T12:23:10;3.22;;;2.92;;
11951;SDS011;6036;41.840;23.486;2022-07-23T12:25:39;5.32;;;3.13;;
11951;SDS011;6036;41.840;23.486;2022-07-23T12:28:08;5.35;;;2.85;;
11951;SDS011;6036;41.840;23.486;2022-07-23T12:36:13;4.18;;;2.50;;
11951;SDS011;6036;41.840;23.486;2022-07-23T12:38:57;5.68;;;3.03;;
11951;SDS011;6036;41.840;23.486;2022-07-23T12:41:24;5.53;;;2.95;;
11951;SDS011;6036;41.840;23.486;2022-07-23T12:43:50;4.75;;;2.70;;
11951;SDS011;6036;41.840;23.486;2022-07-23T12:46:16;4.50;;;3.67;;
11951;SDS011;6036;41.840;23.486;2022-07-23T12:53:47;4.53;;;3.00;;
11951;SDS011;6036;41.840;23.486;2022-07-23T12:56:26;4.35;;;3.17;;
11951;SDS011;6036;41.840;23.486;2022-07-23T13:03:53;4.25;;;3.20;;
11951;SDS011;6036;41.840;23.486;2022-07-23T13:06:32;7.47;;;3.80;;
11951;SDS011;6036;41.840;23.486;2022-07-23T13:09:02;4.68;;;2.70;;
11951;SDS011;6036;41.840;23.486;2022-07-23T13:11:29;6.57;;;3.50;;
11951;SDS011;6036;41.840;23.486;2022-07-23T13:13:54;4.93;;;3.22;;
11951;SDS011;6036;41.840;23.486;2022-07-23T13:16:20;5.43;;;2.67;;
11951;SDS011;6036;41.840;23.486;2022-07-23T13:18:45;6.15;;;3.85;;
11951;SDS011;6036;41.840;23.486;2022-07-23T13:21:11;3.80;;;2.95;;
11951;SDS011;6036;41.840;23.486;2022-07-23T13:23:36;3.90;;;2.60;;
11951;SDS011;6036;41.840;23.486;2022-07-23T13:26:02;4.38;;;3.13;;
11951;SDS011;6036;41.840;23.486;2022-07-23T13:28:28;5.30;;;3.17;;
11951;SDS011;6036;41.840;23.486;2022-07-23T13:30:53;4.05;;;2.90;;
11951;SDS011;6036;41.840;23.486;2022-07-23T13:33:21;5.30;;;3.28;;
11951;SDS011;6036;41.840;23.486;2022-07-23T13:35:48;7.75;;;3.60;;
11951;SDS011;6036;41.840;23.486;2022-07-23T13:38:15;6.63;;;3.08;;
11951;SDS011;6036;41.840;23.486;2022-07-23T13:40:42;4.00;;;2.78;;
11951;SDS011;6036;41.840;23.486;2022-07-23T13:43:10;9.48;;;3.53;;
11951;SDS011;6036;41.840;23.486;2022-07-23T13:45:37;3.38;;;2.95;;
11951;SDS011;6036;41.840;23.486;2022-07-23T13:48:04;6.47;;;3.13;;
11951;SDS011;6036;41.840;23.486;2022-07-23T13:50:31;5.53;;;2.97;;
11951;SDS011;6036;41.840;23.486;2022-07-23T13:52:57;4.60;;;3.30;;
11951;SDS011;6036;41.840;23.486;2022-07-23T13:55:25;3.20;;;2.80;;
11951;SDS011;6036;41.840;23.486;2022-07-23T13:57:51;5.50;;;3.67;;
11951;SDS011;6036;41.840;23.486;2022-07-23T14:00:16;4.15;;;3.03;;
11951;SDS011;6036;41.840;23.486;2022-07-23T14:02:42;3.72;;;2.55;;
11951;SDS011;6036;41.840;23.486;2022-07-23T14:05:08;3.08;;;2.55;;
11951;SDS011;6036;41.840;23.486;2022-07-23T14:07:35;5.38;;;2.90;;
11951;SDS011;6036;41.840;23.486;2022-07-23T14:10:02;3.53;;;2.72;;
11951;SDS011;6036;41.840;23.486;2022-07-23T14:12:29;6.17;;;3.37;;
11951;SDS011;6036;41.840;23.486;2022-07-23T14:14:55;4.85;;;2.80;;
11951;SDS011;6036;41.840;23.486;2022-07-23T14:17:20;5.03;;;2.55;;
11951;SDS011;6036;41.840;23.486;2022-07-23T14:19:46;5.97;;;3.33;;
11951;SDS011;6036;41.840;23.486;2022-07-23T14:22:11;5.85;;;2.78;;
11951;SDS011;6036;41.840;23.486;2022-07-23T14:24:37;5.30;;;3.17;;
11951;SDS011;6036;41.840;23.486;2022-07-23T14:27:03;5.03;;;3.10;;
11951;SDS011;6036;41.840;23.486;2022-07-23T14:29:29;3.72;;;3.00;;
11951;SDS011;6036;41.840;23.486;2022-07-23T14:31:55;3.63;;;2.97;;
11951;SDS011;6036;41.840;23.486;2022-07-23T14:34:21;6.78;;;2.90;;
11951;SDS011;6036;41.840;23.486;2022-07-23T14:36:46;3.58;;;2.85;;
11951;SDS011;6036;41.840;23.486;2022-07-23T14:39:12;5.80;;;2.85;;
11951;SDS011;6036;41.840;23.486;2022-07-23T14:41:38;3.58;;;2.90;;
11951;SDS011;6036;41.840;23.486;2022-07-23T14:44:04;7.57;;;3.33;;
11951;SDS011;6036;41.840;23.486;2022-07-23T14:46:30;3.80;;;2.80;;
11951;SDS011;6036;41.840;23.486;2022-07-23T14:48:55;4.22;;;2.60;;
11951;SDS011;6036;41.840;23.486;2022-07-23T14:51:21;5.00;;;3.20;;
11951;SDS011;6036;41.840;23.486;2022-07-23T14:53:46;3.15;;;2.60;;
11951;SDS011;6036;41.840;23.486;2022-07-23T14:56:12;7.10;;;3.17;;
11951;SDS011;6036;41.840;23.486;2022-07-23T14:58:38;4.00;;;2.55;;
11951;SDS011;6036;41.840;23.486;2022-07-23T15:01:04;4.80;;;2.67;;
11951;SDS011;6036;41.840;23.486;2022-07-23T15:03:30;4.95;;;2.67;;
11951;SDS011;6036;41.840;23.486;2022-07-23T15:05:55;4.65;;;3.63;;
11951;SDS011;6036;41.840;23.486;2022-07-23T15:08:21;5.68;;;3.05;;
11951;SDS011;6036;41.840;23.486;2022-07-23T15:10:46;5.05;;;2.80;;
11951;SDS011;6036;41.840;23.486;2022-07-23T15:13:12;5.07;;;3.25;;
11951;SDS011;6036;41.840;23.486;2022-07-23T15:15:37;4.50;;;2.90;;
11951;SDS011;6036;41.840;23.486;2022-07-23T15:18:03;3.88;;;2.90;;
11951;SDS011;6036;41.840;23.486;2022-07-23T15:20:28;4.60;;;3.53;;
11951;SDS011;6036;41.840;23.486;2022-07-23T15:22:54;5.03;;;3.17;;
11951;SDS011;6036;41.840;23.486;2022-07-23T15:25:20;5.43;;;2.90;;
11951;SDS011;6036;41.840;23.486;2022-07-23T15:27:45;5.50;;;2.80;;
11951;SDS011;6036;41.840;23.486;2022-07-23T15:30:11;4.57;;;2.58;;
11951;SDS011;6036;41.840;23.486;2022-07-23T15:32:36;4.45;;;2.60;;
11951;SDS011;6036;41.840;23.486;2022-07-23T15:35:02;3.20;;;2.90;;
11951;SDS011;6036;41.840;23.486;2022-07-23T15:37:30;4.32;;;2.63;;
11951;SDS011;6036;41.840;23.486;2022-07-23T15:39:55;4.65;;;3.00;;
11951;SDS011;6036;41.840;23.486;2022-07-23T15:42:21;7.63;;;3.03;;
11951;SDS011;6036;41.840;23.486;2022-07-23T15:44:46;3.95;;;3.10;;